createdAt,value
2022-09-28T00:00:55.622Z,64.37
2022-09-28T00:01:55.756Z,64.37
2022-09-28T00:02:55.667Z,64.47
2022-09-28T00:03:55.590Z,64.47
2022-09-28T00:04:55.582Z,64.37
2022-09-28T00:05:55.568Z,64.37
2022-09-28T00:06:55.558Z,64.37
2022-09-28T00:07:55.572Z,64.37
2022-09-28T00:08:55.539Z,64.37
2022-09-28T00:09:55.549Z,64.37
2022-09-28T00:10:55.516Z,64.37
2022-09-28T00:11:55.506Z,64.37
2022-09-28T00:12:55.509Z,64.37
2022-09-28T00:13:55.488Z,64.37
2022-09-28T00:14:55.496Z,64.27
2022-09-28T00:15:55.569Z,64.37
2022-09-28T00:16:55.457Z,64.27
2022-09-28T00:17:55.443Z,64.37
2022-09-28T00:18:55.453Z,64.37
2022-09-28T00:19:55.446Z,64.37
2022-09-28T00:20:55.410Z,64.37
2022-09-28T00:21:55.401Z,64.27
2022-09-28T00:22:55.394Z,64.37
2022-09-28T00:23:55.410Z,64.37
2022-09-28T00:24:55.368Z,64.37
2022-09-28T00:25:55.359Z,64.27
2022-09-28T00:26:55.357Z,64.37
2022-09-28T00:27:55.337Z,64.27
2022-09-28T00:28:55.327Z,64.27
2022-09-28T00:29:55.338Z,64.27
2022-09-28T00:30:55.317Z,64.27
2022-09-28T00:31:55.464Z,64.27
2022-09-28T00:32:55.285Z,64.27
2022-09-28T00:33:55.274Z,64.27
2022-09-28T00:34:55.265Z,64.17
2022-09-28T00:35:55.272Z,64.27
2022-09-28T00:36:55.250Z,64.27
2022-09-28T00:37:55.232Z,64.17
2022-09-28T00:38:55.222Z,64.17
2022-09-28T00:39:55.232Z,64.17
2022-09-28T00:40:55.249Z,64.17
2022-09-28T00:41:55.190Z,64.17
2022-09-28T00:42:55.200Z,64.27
2022-09-28T00:43:55.178Z,64.17
2022-09-28T00:44:55.179Z,64.17
2022-09-28T00:45:55.217Z,64.17
2022-09-28T00:46:55.140Z,64.17
2022-09-28T00:47:55.155Z,64.17
2022-09-28T00:48:55.118Z,64.17
2022-09-28T00:49:55.126Z,64.17
2022-09-28T00:50:55.094Z,64.17
2022-09-28T00:51:55.083Z,64.17
2022-09-28T00:52:55.073Z,64.17
2022-09-28T00:53:55.064Z,64.17
2022-09-28T00:54:55.090Z,64.17
2022-09-28T00:55:55.048Z,64.07
2022-09-28T00:56:55.033Z,64.17
2022-09-28T00:57:55.040Z,64.27
2022-09-28T00:58:55.016Z,64.17
2022-09-28T00:59:55.022Z,64.17
2022-09-28T01:00:55.071Z,64.17
2022-09-28T01:01:55.017Z,64.17
2022-09-28T01:02:54.989Z,64.17
2022-09-28T01:03:54.980Z,64.17
2022-09-28T01:04:54.948Z,64.17
2022-09-28T01:05:54.935Z,64.07
2022-09-28T01:06:54.928Z,64.07
2022-09-28T01:07:54.936Z,64.07
2022-09-28T01:08:54.906Z,64.07
2022-09-28T01:09:54.914Z,64.07
2022-09-28T01:10:54.883Z,63.96
2022-09-28T01:11:54.872Z,64.07
2022-09-28T01:12:54.861Z,64.07
2022-09-28T01:13:54.850Z,64.17
2022-09-28T01:14:54.862Z,64.07
2022-09-28T01:15:54.899Z,64.07
2022-09-28T01:16:54.821Z,63.96
2022-09-28T01:17:54.829Z,64.17
2022-09-28T01:18:54.800Z,64.07
2022-09-28T01:19:54.812Z,64.07
2022-09-28T01:20:54.778Z,64.07
2022-09-28T01:21:54.796Z,64.07
2022-09-28T01:22:54.759Z,64.07
2022-09-28T01:23:54.746Z,64.17
2022-09-28T01:24:54.736Z,64.07
2022-09-28T01:25:54.725Z,64.07
2022-09-28T01:26:54.717Z,63.96
2022-09-28T01:27:54.734Z,64.07
2022-09-28T01:28:54.693Z,63.96
2022-09-28T01:29:54.682Z,64.07
2022-09-28T01:30:54.674Z,63.96
2022-09-28T01:31:54.766Z,63.96
2022-09-28T01:32:54.665Z,64.07
2022-09-28T01:33:54.660Z,63.96
2022-09-28T01:34:54.654Z,63.96
2022-09-28T01:35:54.670Z,63.96
2022-09-28T01:36:54.610Z,64.07
2022-09-28T01:37:54.597Z,64.07
2022-09-28T01:38:54.590Z,63.96
2022-09-28T01:39:54.574Z,63.96
2022-09-28T01:40:54.621Z,64.07
2022-09-28T01:41:54.563Z,63.96
2022-09-28T01:42:54.545Z,63.96
2022-09-28T01:43:54.537Z,63.96
2022-09-28T01:44:54.524Z,63.96
2022-09-28T01:45:54.642Z,63.87
2022-09-28T01:46:54.503Z,63.96
2022-09-28T01:47:54.493Z,63.96
2022-09-28T01:48:54.484Z,63.96
2022-09-28T01:49:54.495Z,63.96
2022-09-28T01:50:54.463Z,63.96
2022-09-28T01:51:54.472Z,63.96
2022-09-28T01:52:54.440Z,64.07
2022-09-28T01:53:54.429Z,63.96
2022-09-28T01:54:54.440Z,64.07
2022-09-28T01:55:54.416Z,63.87
2022-09-28T01:56:54.399Z,63.96
2022-09-28T01:57:54.386Z,64.07
2022-09-28T01:58:54.384Z,63.96
2022-09-28T01:59:54.387Z,63.96
2022-09-28T02:00:54.414Z,63.96
2022-09-28T02:01:54.361Z,63.96
2022-09-28T02:02:54.338Z,63.96
2022-09-28T02:03:54.368Z,63.96
2022-09-28T02:04:54.315Z,63.96
2022-09-28T02:05:54.302Z,63.87
2022-09-28T02:06:54.292Z,63.96
2022-09-28T02:07:54.326Z,63.87
2022-09-28T02:08:54.270Z,63.96
2022-09-28T02:09:54.260Z,63.96
2022-09-28T02:10:54.270Z,63.96
2022-09-28T02:11:54.239Z,63.96
2022-09-28T02:12:54.235Z,63.96
2022-09-28T02:13:54.218Z,63.96
2022-09-28T02:14:54.206Z,63.87
2022-09-28T02:15:54.290Z,63.87
2022-09-28T02:16:54.189Z,63.87
2022-09-28T02:17:54.197Z,63.87
2022-09-28T02:18:54.164Z,63.87
2022-09-28T02:19:54.156Z,63.96
2022-09-28T02:20:54.167Z,63.87
2022-09-28T02:21:54.136Z,63.87
2022-09-28T02:22:54.122Z,63.87
2022-09-28T02:23:54.138Z,63.96
2022-09-28T02:24:54.101Z,63.87
2022-09-28T02:25:54.114Z,63.87
2022-09-28T02:26:54.082Z,63.87
2022-09-28T02:27:54.074Z,63.87
2022-09-28T02:28:54.066Z,63.87
2022-09-28T02:29:54.055Z,63.87
2022-09-28T02:30:54.061Z,63.87
2022-09-28T02:31:54.064Z,63.87
2022-09-28T02:32:54.017Z,63.76
2022-09-28T02:33:54.030Z,63.87
2022-09-28T02:34:53.998Z,63.87
2022-09-28T02:35:53.988Z,63.87
2022-09-28T02:36:53.975Z,63.87
2022-09-28T02:37:53.968Z,63.87
2022-09-28T02:38:53.977Z,63.87
2022-09-28T02:39:53.978Z,63.87
2022-09-28T02:40:53.982Z,63.87
2022-09-28T02:41:53.927Z,63.87
2022-09-28T02:42:53.913Z,63.87
2022-09-28T02:43:53.924Z,63.87
2022-09-28T02:44:53.894Z,63.87
2022-09-28T02:45:53.913Z,63.87
2022-09-28T02:46:53.870Z,63.87
2022-09-28T02:47:53.861Z,63.76
2022-09-28T02:49:10.690Z,63.87
2022-09-28T02:49:54.838Z,63.76
2022-09-28T02:50:53.862Z,63.76
2022-09-28T02:51:53.849Z,63.76
2022-09-28T02:52:53.807Z,63.76
2022-09-28T02:53:53.798Z,63.76
2022-09-28T02:54:53.786Z,63.76
2022-09-28T02:55:53.801Z,63.76
2022-09-28T02:56:53.787Z,63.76
2022-09-28T02:57:53.754Z,63.76
2022-09-28T02:58:53.745Z,63.76
2022-09-28T02:59:53.735Z,63.76
2022-09-28T03:00:53.768Z,63.76
2022-09-28T03:01:53.793Z,63.76
2022-09-28T03:02:53.703Z,63.76
2022-09-28T03:03:53.712Z,63.76
2022-09-28T03:04:53.679Z,63.76
2022-09-28T03:05:53.672Z,63.67
2022-09-28T03:06:53.659Z,63.76
2022-09-28T03:07:53.649Z,63.67
2022-09-28T03:08:53.660Z,63.67
2022-09-28T03:09:53.628Z,63.67
2022-09-28T03:10:53.618Z,63.67
2022-09-28T03:11:53.633Z,63.76
2022-09-28T03:12:53.626Z,63.76
2022-09-28T03:13:53.590Z,63.76
2022-09-28T03:14:53.577Z,63.76
2022-09-28T03:15:53.673Z,63.67
2022-09-28T03:16:53.553Z,63.76
2022-09-28T03:17:53.542Z,63.76
2022-09-28T03:18:53.559Z,63.76
2022-09-28T03:19:53.526Z,63.76
2022-09-28T03:20:53.511Z,63.67
2022-09-28T03:21:53.503Z,63.67
2022-09-28T03:23:12.769Z,63.67
2022-09-28T03:23:54.505Z,63.76
2022-09-28T03:24:53.467Z,63.67
2022-09-28T03:25:53.463Z,63.67
2022-09-28T03:26:53.448Z,63.67
2022-09-28T03:27:53.464Z,63.67
2022-09-28T03:28:53.428Z,63.67
2022-09-28T03:29:53.438Z,63.67
2022-09-28T03:30:53.405Z,63.67
2022-09-28T03:31:53.477Z,63.67
2022-09-28T03:32:53.384Z,63.67
2022-09-28T03:33:53.374Z,63.67
2022-09-28T03:34:53.384Z,63.67
2022-09-28T03:35:53.360Z,63.67
2022-09-28T03:36:53.343Z,63.67
2022-09-28T03:37:53.335Z,63.67
2022-09-28T03:38:53.351Z,63.67
2022-09-28T03:39:53.311Z,63.56
2022-09-28T03:40:53.406Z,63.56
2022-09-28T03:41:53.293Z,63.67
2022-09-28T03:42:53.279Z,63.67
2022-09-28T03:43:53.315Z,63.56
2022-09-28T03:44:53.257Z,63.56
2022-09-28T03:45:53.331Z,63.56
2022-09-28T03:46:53.238Z,63.56
2022-09-28T03:47:53.236Z,63.56
2022-09-28T03:48:53.241Z,63.56
2022-09-28T03:49:53.210Z,63.56
2022-09-28T03:50:53.197Z,63.56
2022-09-28T03:51:53.184Z,63.56
2022-09-28T03:52:53.175Z,63.56
2022-09-28T03:53:53.185Z,63.56
2022-09-28T03:54:53.155Z,63.46
2022-09-28T03:55:53.142Z,63.46
2022-09-28T03:56:53.205Z,63.46
2022-09-28T03:57:53.120Z,63.56
2022-09-28T03:58:53.157Z,63.56
2022-09-28T03:59:53.125Z,63.56
2022-09-28T04:00:53.190Z,63.46
2022-09-28T04:01:53.217Z,63.46
2022-09-28T04:02:53.070Z,63.56
2022-09-28T04:03:53.087Z,63.56
2022-09-28T04:04:53.054Z,63.56
2022-09-28T04:05:53.044Z,63.56
2022-09-28T04:06:53.028Z,63.46
2022-09-28T04:07:53.014Z,63.46
2022-09-28T04:08:53.004Z,63.56
2022-09-28T04:09:53.015Z,63.56
2022-09-28T04:10:52.984Z,63.56
2022-09-28T04:12:03.462Z,63.46
2022-09-28T04:12:53.961Z,63.46
2022-09-28T04:13:52.951Z,63.46
2022-09-28T04:14:52.965Z,63.46
2022-09-28T04:15:52.952Z,63.46
2022-09-28T04:16:52.970Z,63.46
2022-09-28T04:17:52.907Z,63.46
2022-09-28T04:18:52.902Z,63.46
2022-09-28T04:19:52.919Z,63.46
2022-09-28T04:20:52.880Z,63.46
2022-09-28T04:21:52.866Z,63.46
2022-09-28T04:22:52.881Z,63.46
2022-09-28T04:23:52.846Z,63.46
2022-09-28T04:24:52.837Z,63.46
2022-09-28T04:25:52.826Z,63.36
2022-09-28T04:26:52.838Z,63.46
2022-09-28T04:27:52.831Z,63.46
2022-09-28T04:28:52.796Z,63.46
2022-09-28T04:29:52.783Z,63.46
2022-09-28T04:30:52.802Z,63.36
2022-09-28T04:31:52.911Z,63.36
2022-09-28T04:32:52.756Z,63.46
2022-09-28T04:33:52.741Z,63.46
2022-09-28T04:34:52.734Z,63.36
2022-09-28T04:35:52.718Z,63.36
2022-09-28T04:36:52.731Z,63.36
2022-09-28T04:37:52.698Z,63.36
2022-09-28T04:38:53.715Z,63.36
2022-09-28T04:39:52.700Z,63.36
2022-09-28T04:40:52.786Z,63.36
2022-09-28T04:41:52.655Z,63.46
2022-09-28T04:42:52.645Z,63.46
2022-09-28T04:43:52.634Z,63.46
2022-09-28T04:44:52.663Z,63.36
2022-09-28T04:45:52.675Z,63.36
2022-09-28T04:46:52.605Z,63.36
2022-09-28T04:47:52.637Z,63.46
2022-09-28T04:48:52.651Z,63.36
2022-09-28T04:49:52.571Z,63.46
2022-09-28T04:50:52.563Z,63.36
2022-09-28T04:51:52.550Z,63.36
2022-09-28T04:52:52.542Z,63.36
2022-09-28T04:53:52.571Z,63.36
2022-09-28T04:54:52.520Z,63.46
2022-09-28T04:55:52.508Z,63.36
2022-09-28T04:56:52.500Z,63.36
2022-09-28T04:57:52.489Z,63.36
2022-09-28T04:58:52.978Z,63.46
2022-09-28T04:59:52.491Z,63.36
2022-09-28T05:00:52.476Z,63.46
2022-09-28T05:01:52.605Z,63.46
2022-09-28T05:02:52.433Z,63.36
2022-09-28T05:03:52.445Z,63.46
2022-09-28T05:04:52.413Z,63.46
2022-09-28T05:05:52.401Z,63.46
2022-09-28T05:06:52.430Z,63.36
2022-09-28T05:07:52.382Z,63.46
2022-09-28T05:08:52.405Z,63.36
2022-09-28T05:09:52.358Z,63.46
2022-09-28T05:10:52.351Z,63.46
2022-09-28T05:11:52.341Z,63.36
2022-09-28T05:12:52.329Z,63.36
2022-09-28T05:13:52.318Z,63.36
2022-09-28T05:14:52.404Z,63.36
2022-09-28T05:15:56.979Z,63.36
2022-09-28T05:16:53.421Z,63.46
2022-09-28T05:17:52.275Z,63.36
2022-09-28T05:18:52.268Z,63.36
2022-09-28T05:19:52.283Z,63.46
2022-09-28T05:20:52.358Z,63.46
2022-09-28T05:21:52.234Z,63.46
2022-09-28T05:22:52.225Z,63.46
2022-09-28T05:23:52.213Z,63.36
2022-09-28T05:24:52.203Z,63.36
2022-09-28T05:25:52.191Z,63.46
2022-09-28T05:26:52.273Z,63.46
2022-09-28T05:27:52.207Z,63.36
2022-09-28T05:28:52.162Z,63.36
2022-09-28T05:29:52.150Z,63.36
2022-09-28T05:30:52.170Z,63.36
2022-09-28T05:31:52.153Z,63.46
2022-09-28T05:32:52.653Z,63.46
2022-09-28T05:33:52.107Z,63.36
2022-09-28T05:34:52.104Z,63.36
2022-09-28T05:35:55.167Z,63.36
2022-09-28T05:36:52.078Z,63.36
2022-09-28T05:37:52.069Z,63.36
2022-09-28T05:38:52.115Z,63.36
2022-09-28T05:39:52.065Z,63.36
2022-09-28T05:40:52.040Z,63.36
2022-09-28T05:41:52.022Z,63.36
2022-09-28T05:42:52.015Z,63.36
2022-09-28T05:43:52.001Z,63.36
2022-09-28T05:44:52.126Z,63.36
2022-09-28T05:45:55.691Z,63.36
2022-09-28T05:46:51.973Z,63.36
2022-09-28T05:47:51.958Z,63.36
2022-09-28T05:48:51.955Z,63.36
2022-09-28T05:49:51.939Z,63.26
2022-09-28T05:50:51.995Z,63.36
2022-09-28T05:51:51.971Z,63.36
2022-09-28T05:52:51.907Z,63.36
2022-09-28T05:53:51.896Z,63.36
2022-09-28T05:54:52.161Z,63.36
2022-09-28T05:55:51.880Z,63.36
2022-09-28T05:56:51.869Z,63.36
2022-09-28T05:57:51.853Z,63.36
2022-09-28T05:58:51.848Z,63.36
2022-09-28T05:59:51.835Z,63.36
2022-09-28T06:00:52.337Z,63.36
2022-09-28T06:01:51.810Z,63.36
2022-09-28T06:02:51.882Z,63.26
2022-09-28T06:03:51.791Z,63.36
2022-09-28T06:04:51.780Z,63.36
2022-09-28T06:05:51.813Z,63.46
2022-09-28T06:06:51.760Z,63.36
2022-09-28T06:07:51.809Z,63.36
2022-09-28T06:08:51.741Z,63.36
2022-09-28T06:09:51.728Z,63.36
2022-09-28T06:10:51.718Z,63.36
2022-09-28T06:11:51.743Z,63.36
2022-09-28T06:12:51.696Z,63.26
2022-09-28T06:13:51.685Z,63.26
2022-09-28T06:14:51.677Z,63.26
2022-09-28T06:15:51.669Z,63.36
2022-09-28T06:16:51.784Z,63.26
2022-09-28T06:17:51.641Z,63.26
2022-09-28T06:18:51.638Z,63.26
2022-09-28T06:19:51.623Z,63.36
2022-09-28T06:20:51.616Z,63.26
2022-09-28T06:21:51.601Z,63.26
2022-09-28T06:22:52.114Z,63.26
2022-09-28T06:23:51.650Z,63.26
2022-09-28T06:24:51.569Z,63.26
2022-09-28T06:25:51.588Z,63.26
2022-09-28T06:26:51.548Z,63.26
2022-09-28T06:27:51.539Z,63.26
2022-09-28T06:28:51.701Z,63.26
2022-09-28T06:29:51.520Z,63.26
2022-09-28T06:30:51.618Z,63.26
2022-09-28T06:31:51.569Z,63.26
2022-09-28T06:32:51.511Z,63.26
2022-09-28T06:33:51.478Z,63.26
2022-09-28T06:34:56.038Z,63.36
2022-09-28T06:35:51.456Z,63.26
2022-09-28T06:36:51.443Z,63.17
2022-09-28T06:37:51.433Z,63.17
2022-09-28T06:38:51.462Z,63.17
2022-09-28T06:39:51.437Z,63.36
2022-09-28T06:40:51.440Z,63.36
2022-09-28T06:41:51.390Z,63.46
2022-09-28T06:42:51.380Z,63.26
2022-09-28T06:43:51.413Z,63.26
2022-09-28T06:44:51.357Z,63.26
2022-09-28T06:45:51.455Z,63.26
2022-09-28T06:46:51.337Z,63.26
2022-09-28T06:47:51.329Z,63.26
2022-09-28T06:48:51.735Z,63.26
2022-09-28T06:49:51.308Z,63.26
2022-09-28T06:50:53.233Z,63.26
2022-09-28T06:51:51.286Z,63.36
2022-09-28T06:52:51.276Z,63.17
2022-09-28T06:53:51.268Z,63.17
2022-09-28T06:54:51.253Z,63.36
2022-09-28T06:55:51.271Z,63.36
2022-09-28T06:56:51.331Z,63.17
2022-09-28T06:57:51.301Z,63.46
2022-09-28T06:58:51.213Z,63.46
2022-09-28T06:59:51.203Z,63.46
2022-09-28T07:00:51.255Z,63.46
2022-09-28T07:01:51.234Z,63.46
2022-09-28T07:02:51.168Z,63.46
2022-09-28T07:03:55.537Z,63.46
2022-09-28T07:04:51.148Z,63.36
2022-09-28T07:05:51.141Z,63.17
2022-09-28T07:06:51.202Z,63.26
2022-09-28T07:07:51.120Z,63.36
2022-09-28T07:09:02.038Z,63.36
2022-09-28T07:09:55.235Z,63.36
2022-09-28T07:10:51.387Z,63.36
2022-09-28T07:11:51.102Z,63.46
2022-09-28T07:12:51.065Z,63.46
2022-09-28T07:13:51.649Z,63.56
2022-09-28T07:14:51.213Z,63.46
2022-09-28T07:15:51.214Z,63.56
2022-09-28T07:17:11.604Z,63.56
2022-09-28T07:18:01.419Z,63.67
2022-09-28T07:18:51.999Z,63.56
2022-09-28T07:19:50.994Z,63.56
2022-09-28T07:20:54.435Z,63.56
2022-09-28T07:22:02.608Z,63.56
2022-09-28T07:22:51.958Z,63.56
2022-09-28T07:23:54.036Z,63.67
2022-09-28T07:24:50.937Z,63.56
2022-09-28T07:25:50.926Z,63.67
2022-09-28T07:26:50.959Z,63.67
2022-09-28T07:27:50.935Z,63.67
2022-09-28T07:28:50.898Z,63.67
2022-09-28T07:29:50.887Z,63.67
2022-09-28T07:30:50.967Z,63.67
2022-09-28T07:31:50.866Z,63.76
2022-09-28T07:32:50.911Z,63.67
2022-09-28T07:33:50.848Z,63.87
2022-09-28T07:34:52.482Z,63.76
2022-09-28T07:35:50.825Z,63.56
2022-09-28T07:36:50.814Z,63.46
2022-09-28T07:37:50.862Z,63.46
2022-09-28T07:38:50.790Z,63.36
2022-09-28T07:39:50.780Z,63.46
2022-09-28T07:40:50.858Z,63.46
2022-09-28T07:41:50.760Z,63.56
2022-09-28T07:42:50.787Z,63.56
2022-09-28T07:43:50.770Z,63.67
2022-09-28T07:44:50.725Z,63.67
2022-09-28T07:45:50.790Z,63.67
2022-09-28T07:46:50.705Z,63.67
2022-09-28T07:47:50.748Z,63.76
2022-09-28T07:48:50.687Z,63.64
2022-09-28T07:49:50.674Z,63.64
2022-09-28T07:50:50.670Z,63.64
2022-09-28T07:51:50.655Z,63.64
2022-09-28T07:52:50.642Z,63.53
2022-09-28T07:53:50.683Z,63.64
2022-09-28T07:54:50.620Z,63.53
2022-09-28T07:55:50.613Z,63.53
2022-09-28T07:56:50.601Z,63.64
2022-09-28T07:57:50.699Z,63.64
2022-09-28T07:58:50.628Z,63.73
2022-09-28T07:59:50.593Z,63.73
2022-09-28T08:00:50.678Z,63.73
2022-09-28T08:01:50.554Z,63.84
2022-09-28T08:02:50.539Z,63.73
2022-09-28T08:03:50.550Z,63.64
2022-09-28T08:04:50.515Z,63.64
2022-09-28T08:05:50.511Z,63.64
2022-09-28T08:06:50.496Z,63.64
2022-09-28T08:07:50.487Z,63.64
2022-09-28T08:08:50.554Z,63.64
2022-09-28T08:09:50.609Z,63.73
2022-09-28T08:10:50.494Z,63.73
2022-09-28T08:11:50.453Z,63.73
2022-09-28T08:12:50.433Z,63.73
2022-09-28T08:13:50.450Z,63.64
2022-09-28T08:14:50.412Z,63.73
2022-09-28T08:15:50.515Z,63.73
2022-09-28T08:16:53.106Z,63.73
2022-09-28T08:17:50.380Z,63.84
2022-09-28T08:18:50.367Z,63.84
2022-09-28T08:19:50.356Z,63.84
2022-09-28T08:20:51.645Z,63.73
2022-09-28T08:21:50.335Z,63.73
2022-09-28T08:22:50.427Z,63.73
2022-09-28T08:23:50.315Z,63.73
2022-09-28T08:24:50.303Z,63.73
2022-09-28T08:25:50.319Z,63.73
2022-09-28T08:26:50.282Z,63.84
2022-09-28T08:27:50.278Z,63.84
2022-09-28T08:28:50.265Z,63.93
2022-09-28T08:29:50.342Z,64.14
2022-09-28T08:30:50.393Z,64.14
2022-09-28T08:31:50.264Z,64.04
2022-09-28T08:32:50.220Z,64.14
2022-09-28T08:33:50.211Z,64.24
2022-09-28T08:34:50.199Z,64.34
2022-09-28T08:35:50.293Z,64.24
2022-09-28T08:36:50.176Z,63.84
2022-09-28T08:37:54.623Z,63.84
2022-09-28T08:38:51.211Z,63.84
2022-09-28T08:39:50.148Z,63.84
2022-09-28T08:40:50.236Z,63.73
2022-09-28T08:41:50.126Z,63.73
2022-09-28T08:42:50.113Z,63.84
2022-09-28T08:43:50.103Z,63.73
2022-09-28T08:44:50.204Z,63.84
2022-09-28T08:45:50.158Z,63.93
2022-09-28T08:46:50.137Z,63.93
2022-09-28T08:47:50.089Z,63.93
2022-09-28T08:49:13.038Z,63.93
2022-09-28T08:49:51.152Z,63.93
2022-09-28T08:50:50.029Z,63.84
2022-09-28T08:51:50.022Z,63.84
2022-09-28T08:52:50.150Z,63.84
2022-09-28T08:53:50.000Z,63.73
2022-09-28T08:54:49.988Z,63.73
2022-09-28T08:55:49.977Z,63.73
2022-09-28T08:56:49.967Z,63.64
2022-09-28T08:57:49.981Z,63.64
2022-09-28T08:58:49.944Z,63.64
2022-09-28T08:59:49.942Z,63.64
2022-09-28T09:00:49.988Z,63.64
2022-09-28T09:01:49.915Z,63.64
2022-09-28T09:02:50.047Z,64.04
2022-09-28T09:03:49.916Z,63.84
2022-09-28T09:04:49.881Z,63.93
2022-09-28T09:05:49.874Z,63.84
2022-09-28T09:06:49.860Z,63.84
2022-09-28T09:07:49.879Z,63.73
2022-09-28T09:08:49.843Z,63.73
2022-09-28T09:09:49.831Z,63.84
2022-09-28T09:10:49.818Z,63.84
2022-09-28T09:11:49.812Z,63.93
2022-09-28T09:12:49.892Z,63.93
2022-09-28T09:13:49.790Z,63.93
2022-09-28T09:14:49.775Z,63.93
2022-09-28T09:15:49.788Z,63.90
2022-09-28T09:16:49.820Z,63.90
2022-09-28T09:17:49.744Z,63.81
2022-09-28T09:18:49.733Z,63.81
2022-09-28T09:19:49.751Z,63.81
2022-09-28T09:20:49.735Z,63.90
2022-09-28T09:21:49.705Z,63.81
2022-09-28T09:22:49.718Z,63.81
2022-09-28T09:23:49.684Z,63.90
2022-09-28T09:24:49.670Z,63.90
2022-09-28T09:25:49.663Z,63.81
2022-09-28T09:26:49.650Z,63.93
2022-09-28T09:27:49.639Z,64.01
2022-09-28T09:28:49.675Z,64.01
2022-09-28T09:29:49.617Z,64.01
2022-09-28T09:30:49.654Z,63.90
2022-09-28T09:31:49.618Z,63.90
2022-09-28T09:32:49.585Z,63.90
2022-09-28T09:33:49.580Z,63.90
2022-09-28T09:34:49.563Z,63.81
2022-09-28T09:35:49.786Z,63.81
2022-09-28T09:36:49.694Z,63.81
2022-09-28T09:37:49.532Z,63.84
2022-09-28T09:38:49.521Z,63.60
2022-09-28T09:39:49.515Z,63.70
2022-09-28T09:40:49.584Z,63.81
2022-09-28T09:41:49.491Z,63.81
2022-09-28T09:42:49.507Z,63.81
2022-09-28T09:43:49.472Z,63.81
2022-09-28T09:44:49.459Z,63.60
2022-09-28T09:45:49.490Z,63.60
2022-09-28T09:46:54.669Z,63.60
2022-09-28T09:47:49.426Z,63.73
2022-09-28T09:48:49.414Z,63.81
2022-09-28T09:49:49.409Z,63.70
2022-09-28T09:50:49.425Z,63.70
2022-09-28T09:51:49.407Z,63.81
2022-09-28T09:52:49.381Z,63.81
2022-09-28T09:53:49.365Z,63.81
2022-09-28T09:54:49.351Z,63.81
2022-09-28T09:55:49.371Z,63.81
2022-09-28T09:56:49.330Z,63.70
2022-09-28T09:57:49.318Z,63.81
2022-09-28T09:58:49.306Z,63.81
2022-09-28T09:59:49.296Z,63.81
2022-09-28T10:00:49.312Z,63.70
2022-09-28T10:01:49.349Z,63.70
2022-09-28T10:02:49.317Z,63.70
2022-09-28T10:03:49.254Z,63.81
2022-09-28T10:04:49.254Z,63.81
2022-09-28T10:05:49.231Z,63.60
2022-09-28T10:06:49.256Z,63.60
2022-09-28T10:07:49.231Z,63.70
2022-09-28T10:08:49.202Z,63.70
2022-09-28T10:09:49.189Z,63.70
2022-09-28T10:10:49.182Z,63.70
2022-09-28T10:11:49.196Z,63.81
2022-09-28T10:12:49.708Z,63.70
2022-09-28T10:13:49.147Z,63.81
2022-09-28T10:14:49.140Z,63.81
2022-09-28T10:15:49.127Z,63.81
2022-09-28T10:16:49.303Z,63.81
2022-09-28T10:17:49.106Z,63.60
2022-09-28T10:18:49.095Z,63.60
2022-09-28T10:19:49.096Z,63.50
2022-09-28T10:20:49.076Z,63.50
2022-09-28T10:21:49.089Z,63.50
2022-09-28T10:22:49.063Z,63.50
2022-09-28T10:23:49.069Z,63.60
2022-09-28T10:24:49.034Z,63.60
2022-09-28T10:25:49.020Z,63.60
2022-09-28T10:26:49.042Z,63.70
2022-09-28T10:27:49.031Z,63.70
2022-09-28T10:28:48.990Z,63.60
2022-09-28T10:29:48.981Z,63.60
2022-09-28T10:30:49.030Z,63.60
2022-09-28T10:31:48.957Z,63.60
2022-09-28T10:32:48.974Z,63.60
2022-09-28T10:33:48.937Z,63.60
2022-09-28T10:34:50.980Z,63.50
2022-09-28T10:35:48.915Z,63.40
2022-09-28T10:36:48.908Z,63.40
2022-09-28T10:37:48.922Z,63.40
2022-09-28T10:38:48.893Z,63.50
2022-09-28T10:39:48.909Z,63.50
2022-09-28T10:40:48.932Z,63.50
2022-09-28T10:41:48.854Z,63.60
2022-09-28T10:42:48.871Z,63.60
2022-09-28T10:43:50.183Z,63.50
2022-09-28T10:44:48.821Z,63.50
2022-09-28T10:45:48.899Z,63.60
2022-09-28T10:46:48.800Z,63.60
2022-09-28T10:47:48.791Z,63.50
2022-09-28T10:48:48.779Z,63.40
2022-09-28T10:49:48.798Z,63.20
2022-09-28T10:50:48.757Z,63.31
2022-09-28T10:51:48.748Z,63.31
2022-09-28T10:52:48.735Z,63.40
2022-09-28T10:53:48.725Z,63.50
2022-09-28T10:54:48.741Z,63.50
2022-09-28T10:55:48.737Z,63.31
2022-09-28T10:56:48.694Z,63.31
2022-09-28T10:57:48.686Z,63.50
2022-09-28T10:58:48.672Z,63.40
2022-09-28T10:59:48.692Z,63.50
2022-09-28T11:00:48.654Z,63.50
2022-09-28T11:01:48.711Z,63.31
2022-09-28T11:02:48.655Z,63.31
2022-09-28T11:03:48.621Z,63.20
2022-09-28T11:04:48.654Z,63.31
2022-09-28T11:05:48.598Z,63.50
2022-09-28T11:06:48.667Z,63.70
2022-09-28T11:07:48.579Z,63.73
2022-09-28T11:08:48.566Z,63.73
2022-09-28T11:09:48.887Z,63.43
2022-09-28T11:10:48.572Z,63.43
2022-09-28T11:11:48.562Z,63.43
2022-09-28T11:12:48.525Z,63.73
2022-09-28T11:13:48.512Z,63.73
2022-09-28T11:14:48.505Z,63.73
2022-09-28T11:15:48.525Z,63.81
2022-09-28T11:16:48.498Z,63.84
2022-09-28T11:17:48.473Z,63.93
2022-09-28T11:18:48.470Z,63.73
2022-09-28T11:19:48.450Z,63.53
2022-09-28T11:20:48.468Z,63.53
2022-09-28T11:21:48.431Z,63.64
2022-09-28T11:22:51.283Z,63.53
2022-09-28T11:23:48.412Z,63.33
2022-09-28T11:24:48.397Z,63.33
2022-09-28T11:25:48.420Z,63.53
2022-09-28T11:26:48.400Z,63.64
2022-09-28T11:27:48.394Z,63.43
2022-09-28T11:28:48.356Z,63.43
2022-09-28T11:29:48.347Z,63.43
2022-09-28T11:30:48.504Z,63.43
2022-09-28T11:31:48.373Z,63.53
2022-09-28T11:32:48.312Z,63.53
2022-09-28T11:33:48.311Z,63.43
2022-09-28T11:34:58.976Z,63.53
2022-09-28T11:35:49.282Z,63.53
2022-09-28T11:36:48.270Z,63.43
2022-09-28T11:37:48.289Z,63.43
2022-09-28T11:38:48.250Z,63.43
2022-09-28T11:39:48.242Z,63.40
2022-09-28T11:40:48.268Z,63.40
2022-09-28T11:41:48.217Z,63.40
2022-09-28T11:42:48.234Z,63.50
2022-09-28T11:43:48.329Z,63.40
2022-09-28T11:44:48.184Z,63.31
2022-09-28T11:45:48.251Z,63.31
2022-09-28T11:46:48.168Z,63.50
2022-09-28T11:47:48.157Z,63.64
2022-09-28T11:48:48.174Z,63.64
2022-09-28T11:49:48.138Z,63.53
2022-09-28T11:50:48.124Z,63.33
2022-09-28T11:51:48.115Z,63.33
2022-09-28T11:52:48.101Z,63.33
2022-09-28T11:53:48.143Z,63.33
2022-09-28T11:54:48.081Z,63.23
2022-09-28T11:55:48.069Z,63.23
2022-09-28T11:56:48.056Z,63.23
2022-09-28T11:57:48.052Z,63.33
2022-09-28T11:58:48.036Z,63.43
2022-09-28T11:59:48.102Z,63.43
2022-09-28T12:00:48.017Z,63.33
2022-09-28T12:01:48.010Z,63.43
2022-09-28T12:02:48.188Z,63.43
2022-09-28T12:03:48.041Z,63.43
2022-09-28T12:04:48.002Z,63.43
2022-09-28T12:05:47.965Z,63.53
2022-09-28T12:06:47.953Z,63.84
2022-09-28T12:07:47.942Z,63.93
2022-09-28T12:08:47.931Z,63.84
2022-09-28T12:09:47.947Z,63.84
2022-09-28T12:10:47.909Z,63.64
2022-09-28T12:11:47.904Z,63.53
2022-09-28T12:12:47.915Z,63.64
2022-09-28T12:13:47.880Z,63.53
2022-09-28T12:14:47.867Z,63.53
2022-09-28T12:16:17.137Z,63.53
2022-09-28T12:17:07.390Z,63.64
2022-09-28T12:17:48.922Z,63.53
2022-09-28T12:18:47.880Z,63.53
2022-09-28T12:19:47.821Z,63.53
2022-09-28T12:20:47.833Z,63.53
2022-09-28T12:21:47.798Z,63.43
2022-09-28T12:22:47.784Z,63.43
2022-09-28T12:23:47.774Z,63.53
2022-09-28T12:24:47.764Z,63.53
2022-09-28T12:25:47.797Z,63.53
2022-09-28T12:26:47.742Z,63.64
2022-09-28T12:27:47.795Z,63.64
2022-09-28T12:28:47.720Z,63.53
2022-09-28T12:29:47.722Z,63.64
2022-09-28T12:30:47.791Z,63.64
2022-09-28T12:31:47.715Z,63.64
2022-09-28T12:32:47.679Z,63.73
2022-09-28T12:33:47.671Z,63.73
2022-09-28T12:34:47.657Z,63.73
2022-09-28T12:35:47.647Z,63.73
2022-09-28T12:36:47.669Z,63.73
2022-09-28T12:37:50.543Z,63.73
2022-09-28T12:38:54.126Z,63.64
2022-09-28T12:39:57.463Z,63.64
2022-09-28T12:40:48.650Z,63.64
2022-09-28T12:41:47.615Z,63.64
2022-09-28T12:42:47.574Z,63.64
2022-09-28T12:43:47.567Z,63.64
2022-09-28T12:44:47.554Z,63.64
2022-09-28T12:46:10.381Z,63.64
2022-09-28T12:46:48.618Z,63.53
2022-09-28T12:47:47.571Z,63.64
2022-09-28T12:48:57.205Z,63.64
2022-09-28T12:50:36.375Z,63.64
2022-09-28T12:50:56.752Z,63.64
2022-09-28T12:51:48.486Z,63.84
2022-09-28T12:52:47.513Z,63.64